sensor_id;sensor_type;location;lat;lon;timestamp;temperature;humidity
23237;DHT22;11787;52.018;8.570;2023-03-08T00:00:54;1.50;99.90
23237;DHT22;11787;52.018;8.570;2023-03-08T00:03:20;1.60;99.90
23237;DHT22;11787;52.018;8.570;2023-03-08T00:05:45;1.50;99.90
23237;DHT22;11787;52.018;8.570;2023-03-08T00:08:11;1.50;99.90
23237;DHT22;11787;52.018;8.570;2023-03-08T00:10:36;1.50;99.90
23237;DHT22;11787;52.018;8.570;2023-03-08T00:13:02;1.40;99.90
23237;DHT22;11787;52.018;8.570;2023-03-08T00:15:28;1.40;99.90
23237;DHT22;11787;52.018;8.570;2023-03-08T00:17:53;1.50;99.90
23237;DHT22;11787;52.018;8.570;2023-03-08T00:20:19;1.50;99.90
23237;DHT22;11787;52.018;8.570;2023-03-08T00:22:44;1.50;99.90
23237;DHT22;11787;52.018;8.570;2023-03-08T00:25:10;1.40;99.90
23237;DHT22;11787;52.018;8.570;2023-03-08T00:27:35;1.50;99.90
23237;DHT22;11787;52.018;8.570;2023-03-08T00:30:02;1.50;99.90
23237;DHT22;11787;52.018;8.570;2023-03-08T00:32:28;1.50;99.90
23237;DHT22;11787;52.018;8.570;2023-03-08T00:34:54;1.50;99.90
23237;DHT22;11787;52.018;8.570;2023-03-08T00:37:19;1.50;99.90
23237;DHT22;11787;52.018;8.570;2023-03-08T00:39:49;1.50;99.90
23237;DHT22;11787;52.018;8.570;2023-03-08T00:42:15;1.50;99.90
23237;DHT22;11787;52.018;8.570;2023-03-08T00:44:40;1.50;99.90
23237;DHT22;11787;52.018;8.570;2023-03-08T00:47:06;1.50;99.90
23237;DHT22;11787;52.018;8.570;2023-03-08T00:49:31;1.60;99.90
23237;DHT22;11787;52.018;8.570;2023-03-08T00:51:57;1.50;99.90
23237;DHT22;11787;52.018;8.570;2023-03-08T00:54:22;1.40;99.90
23237;DHT22;11787;52.018;8.570;2023-03-08T00:56:47;1.50;99.90
23237;DHT22;11787;52.018;8.570;2023-03-08T00:59:13;1.40;99.90
23237;DHT22;11787;52.018;8.570;2023-03-08T01:01:38;1.40;99.90
23237;DHT22;11787;52.018;8.570;2023-03-08T01:04:04;1.40;99.90
23237;DHT22;11787;52.018;8.570;2023-03-08T01:06:29;1.40;99.90
23237;DHT22;11787;52.018;8.570;2023-03-08T01:08:55;1.40;99.90
23237;DHT22;11787;52.018;8.570;2023-03-08T01:11:22;1.30;99.90
23237;DHT22;11787;52.018;8.570;2023-03-08T01:13:48;1.30;99.90
23237;DHT22;11787;52.018;8.570;2023-03-08T01:16:21;1.30;99.90
23237;DHT22;11787;52.018;8.570;2023-03-08T01:18:47;1.30;99.90
23237;DHT22;11787;52.018;8.570;2023-03-08T01:21:13;1.40;99.90
23237;DHT22;11787;52.018;8.570;2023-03-08T01:23:38;1.30;99.90
23237;DHT22;11787;52.018;8.570;2023-03-08T01:26:05;1.30;99.90
23237;DHT22;11787;52.018;8.570;2023-03-08T01:28:31;1.40;99.90
23237;DHT22;11787;52.018;8.570;2023-03-08T01:31:03;1.30;99.90
23237;DHT22;11787;52.018;8.570;2023-03-08T01:33:29;1.30;99.90
23237;DHT22;11787;52.018;8.570;2023-03-08T01:35:54;1.30;99.90
23237;DHT22;11787;52.018;8.570;2023-03-08T01:38:20;1.30;99.90
23237;DHT22;11787;52.018;8.570;2023-03-08T01:40:45;1.20;99.90
23237;DHT22;11787;52.018;8.570;2023-03-08T01:48:36;1.30;99.90
23237;DHT22;11787;52.018;8.570;2023-03-08T01:51:03;1.30;99.90
23237;DHT22;11787;52.018;8.570;2023-03-08T01:53:29;1.30;99.90
23237;DHT22;11787;52.018;8.570;2023-03-08T01:55:55;1.30;99.90
23237;DHT22;11787;52.018;8.570;2023-03-08T01:58:20;1.30;99.90
23237;DHT22;11787;52.018;8.570;2023-03-08T02:00:46;1.20;99.90
23237;DHT22;11787;52.018;8.570;2023-03-08T02:03:14;1.20;99.90
23237;DHT22;11787;52.018;8.570;2023-03-08T02:05:41;1.20;99.90
23237;DHT22;11787;52.018;8.570;2023-03-08T02:08:07;1.20;99.90
23237;DHT22;11787;52.018;8.570;2023-03-08T02:10:32;1.20;99.90
23237;DHT22;11787;52.018;8.570;2023-03-08T02:12:59;1.20;99.90
23237;DHT22;11787;52.018;8.570;2023-03-08T02:15:25;1.20;99.90
23237;DHT22;11787;52.018;8.570;2023-03-08T02:17:50;1.20;99.90
23237;DHT22;11787;52.018;8.570;2023-03-08T02:20:17;1.20;99.90
23237;DHT22;11787;52.018;8.570;2023-03-08T02:22:45;1.20;99.90
23237;DHT22;11787;52.018;8.570;2023-03-08T02:27:39;1.20;99.90
23237;DHT22;11787;52.018;8.570;2023-03-08T02:30:05;1.20;99.90
23237;DHT22;11787;52.018;8.570;2023-03-08T02:32:30;1.30;99.90
23237;DHT22;11787;52.018;8.570;2023-03-08T02:34:56;1.30;99.90
23237;DHT22;11787;52.018;8.570;2023-03-08T02:37:21;1.30;99.90
23237;DHT22;11787;52.018;8.570;2023-03-08T02:39:47;1.30;99.90
23237;DHT22;11787;52.018;8.570;2023-03-08T02:42:12;1.20;99.90
23237;DHT22;11787;52.018;8.570;2023-03-08T02:44:37;1.20;99.90
23237;DHT22;11787;52.018;8.570;2023-03-08T02:47:03;1.20;99.90
23237;DHT22;11787;52.018;8.570;2023-03-08T02:49:28;1.20;99.90
23237;DHT22;11787;52.018;8.570;2023-03-08T02:51:54;1.30;99.90
23237;DHT22;11787;52.018;8.570;2023-03-08T02:54:19;1.30;99.90
23237;DHT22;11787;52.018;8.570;2023-03-08T02:56:45;1.20;99.90
23237;DHT22;11787;52.018;8.570;2023-03-08T02:59:10;1.20;99.90
23237;DHT22;11787;52.018;8.570;2023-03-08T03:01:36;1.10;99.90
23237;DHT22;11787;52.018;8.570;2023-03-08T03:04:01;1.10;99.90
23237;DHT22;11787;52.018;8.570;2023-03-08T03:06:27;1.20;99.90
23237;DHT22;11787;52.018;8.570;2023-03-08T03:08:53;1.20;99.90
23237;DHT22;11787;52.018;8.570;2023-03-08T03:11:19;1.20;99.90
23237;DHT22;11787;52.018;8.570;2023-03-08T03:13:45;1.20;99.90
23237;DHT22;11787;52.018;8.570;2023-03-08T03:16:12;1.20;99.90
23237;DHT22;11787;52.018;8.570;2023-03-08T03:18:38;1.30;99.90
23237;DHT22;11787;52.018;8.570;2023-03-08T03:21:04;1.10;99.90
23237;DHT22;11787;52.018;8.570;2023-03-08T03:23:30;1.10;99.90
23237;DHT22;11787;52.018;8.570;2023-03-08T03:25:55;1.10;99.90
23237;DHT22;11787;52.018;8.570;2023-03-08T03:28:21;1.10;99.90
23237;DHT22;11787;52.018;8.570;2023-03-08T03:30:46;1.20;99.90
23237;DHT22;11787;52.018;8.570;2023-03-08T03:33:12;1.10;99.90
23237;DHT22;11787;52.018;8.570;2023-03-08T03:35:38;1.10;99.90
23237;DHT22;11787;52.018;8.570;2023-03-08T03:38:03;1.10;99.90
23237;DHT22;11787;52.018;8.570;2023-03-08T03:40:28;1.10;99.90
23237;DHT22;11787;52.018;8.570;2023-03-08T03:42:54;1.20;99.90
23237;DHT22;11787;52.018;8.570;2023-03-08T03:45:19;1.00;99.90
23237;DHT22;11787;52.018;8.570;2023-03-08T03:47:45;1.10;99.90
23237;DHT22;11787;52.018;8.570;2023-03-08T03:50:12;1.10;99.90
23237;DHT22;11787;52.018;8.570;2023-03-08T03:52:37;1.00;99.90
23237;DHT22;11787;52.018;8.570;2023-03-08T03:55:03;1.00;99.90
23237;DHT22;11787;52.018;8.570;2023-03-08T03:57:29;1.10;99.90
23237;DHT22;11787;52.018;8.570;2023-03-08T03:59:54;1.00;99.90
23237;DHT22;11787;52.018;8.570;2023-03-08T04:02:20;1.00;99.90
23237;DHT22;11787;52.018;8.570;2023-03-08T04:04:47;1.00;99.90
23237;DHT22;11787;52.018;8.570;2023-03-08T04:07:12;1.00;99.90
23237;DHT22;11787;52.018;8.570;2023-03-08T04:09:38;1.00;99.90
23237;DHT22;11787;52.018;8.570;2023-03-08T04:12:04;1.00;99.90
23237;DHT22;11787;52.018;8.570;2023-03-08T04:14:30;0.90;99.90
23237;DHT22;11787;52.018;8.570;2023-03-08T04:16:55;0.90;99.90
23237;DHT22;11787;52.018;8.570;2023-03-08T04:19:21;0.90;99.90
23237;DHT22;11787;52.018;8.570;2023-03-08T04:21:46;0.90;99.90
23237;DHT22;11787;52.018;8.570;2023-03-08T04:24:12;0.90;99.90
23237;DHT22;11787;52.018;8.570;2023-03-08T04:26:37;0.90;99.90
23237;DHT22;11787;52.018;8.570;2023-03-08T04:29:03;0.90;99.90
23237;DHT22;11787;52.018;8.570;2023-03-08T04:31:30;0.90;99.90
23237;DHT22;11787;52.018;8.570;2023-03-08T04:33:56;0.90;99.90
23237;DHT22;11787;52.018;8.570;2023-03-08T04:36:22;0.90;99.90
23237;DHT22;11787;52.018;8.570;2023-03-08T04:38:48;0.90;99.90
23237;DHT22;11787;52.018;8.570;2023-03-08T04:41:14;0.90;99.90
23237;DHT22;11787;52.018;8.570;2023-03-08T04:43:42;0.90;99.90
23237;DHT22;11787;52.018;8.570;2023-03-08T04:46:08;0.80;99.90
23237;DHT22;11787;52.018;8.570;2023-03-08T04:48:34;0.90;99.90
23237;DHT22;11787;52.018;8.570;2023-03-08T04:51:00;0.90;99.90
23237;DHT22;11787;52.018;8.570;2023-03-08T04:53:26;0.90;99.90
23237;DHT22;11787;52.018;8.570;2023-03-08T04:55:52;0.90;99.90
23237;DHT22;11787;52.018;8.570;2023-03-08T04:58:18;0.90;99.90
23237;DHT22;11787;52.018;8.570;2023-03-08T05:00:44;0.90;99.90
23237;DHT22;11787;52.018;8.570;2023-03-08T05:03:09;0.80;99.90
23237;DHT22;11787;52.018;8.570;2023-03-08T05:05:35;0.80;99.90
23237;DHT22;11787;52.018;8.570;2023-03-08T05:08:00;0.80;99.90
23237;DHT22;11787;52.018;8.570;2023-03-08T05:10:29;0.70;99.90
23237;DHT22;11787;52.018;8.570;2023-03-08T05:12:55;0.70;99.90
23237;DHT22;11787;52.018;8.570;2023-03-08T05:15:20;0.80;99.90
23237;DHT22;11787;52.018;8.570;2023-03-08T05:17:49;0.90;99.90
23237;DHT22;11787;52.018;8.570;2023-03-08T05:20:15;0.90;99.90
23237;DHT22;11787;52.018;8.570;2023-03-08T05:22:40;0.90;99.90
23237;DHT22;11787;52.018;8.570;2023-03-08T05:25:06;1.00;99.90
23237;DHT22;11787;52.018;8.570;2023-03-08T05:27:32;1.00;99.90
23237;DHT22;11787;52.018;8.570;2023-03-08T05:29:58;1.00;99.90
23237;DHT22;11787;52.018;8.570;2023-03-08T05:32:23;1.00;99.90
23237;DHT22;11787;52.018;8.570;2023-03-08T05:34:50;1.00;99.90
23237;DHT22;11787;52.018;8.570;2023-03-08T05:37:16;1.00;99.90
23237;DHT22;11787;52.018;8.570;2023-03-08T05:39:41;1.00;99.90
23237;DHT22;11787;52.018;8.570;2023-03-08T05:42:07;1.00;99.90
23237;DHT22;11787;52.018;8.570;2023-03-08T05:44:32;1.00;99.90
23237;DHT22;11787;52.018;8.570;2023-03-08T05:46:58;1.00;99.90
23237;DHT22;11787;52.018;8.570;2023-03-08T05:49:23;1.00;99.90
23237;DHT22;11787;52.018;8.570;2023-03-08T05:51:49;1.00;99.90
23237;DHT22;11787;52.018;8.570;2023-03-08T05:54:14;1.00;99.90
23237;DHT22;11787;52.018;8.570;2023-03-08T05:56:40;1.00;99.90
23237;DHT22;11787;52.018;8.570;2023-03-08T05:59:05;1.00;99.90
23237;DHT22;11787;52.018;8.570;2023-03-08T06:01:31;1.00;99.90
23237;DHT22;11787;52.018;8.570;2023-03-08T06:03:56;1.00;99.90
23237;DHT22;11787;52.018;8.570;2023-03-08T06:06:23;1.00;99.90
23237;DHT22;11787;52.018;8.570;2023-03-08T06:08:49;1.00;99.90
23237;DHT22;11787;52.018;8.570;2023-03-08T06:11:14;1.10;99.90
23237;DHT22;11787;52.018;8.570;2023-03-08T06:13:40;1.10;99.90
23237;DHT22;11787;52.018;8.570;2023-03-08T06:16:06;1.10;99.90
23237;DHT22;11787;52.018;8.570;2023-03-08T06:18:32;1.10;99.90
23237;DHT22;11787;52.018;8.570;2023-03-08T06:20:58;1.10;99.90
23237;DHT22;11787;52.018;8.570;2023-03-08T06:23:24;1.10;99.90
23237;DHT22;11787;52.018;8.570;2023-03-08T06:25:50;1.10;99.90
23237;DHT22;11787;52.018;8.570;2023-03-08T06:28:16;1.20;99.90
23237;DHT22;11787;52.018;8.570;2023-03-08T06:30:41;1.30;99.90
23237;DHT22;11787;52.018;8.570;2023-03-08T06:33:07;1.30;99.90
23237;DHT22;11787;52.018;8.570;2023-03-08T06:35:32;1.30;99.90
23237;DHT22;11787;52.018;8.570;2023-03-08T06:37:58;1.30;99.90
23237;DHT22;11787;52.018;8.570;2023-03-08T06:40:23;1.30;99.90
23237;DHT22;11787;52.018;8.570;2023-03-08T06:42:49;1.30;99.90
23237;DHT22;11787;52.018;8.570;2023-03-08T06:45:14;1.30;99.90
23237;DHT22;11787;52.018;8.570;2023-03-08T06:47:39;1.40;99.90
23237;DHT22;11787;52.018;8.570;2023-03-08T06:50:05;1.40;99.90
23237;DHT22;11787;52.018;8.570;2023-03-08T06:52:30;1.40;99.90
23237;DHT22;11787;52.018;8.570;2023-03-08T06:55:04;1.50;99.90
23237;DHT22;11787;52.018;8.570;2023-03-08T06:57:30;1.50;99.90
23237;DHT22;11787;52.018;8.570;2023-03-08T06:59:56;1.50;99.90
23237;DHT22;11787;52.018;8.570;2023-03-08T07:02:21;1.50;99.90
23237;DHT22;11787;52.018;8.570;2023-03-08T07:04:47;1.50;99.90
23237;DHT22;11787;52.018;8.570;2023-03-08T07:07:12;1.50;99.90
23237;DHT22;11787;52.018;8.570;2023-03-08T07:09:38;1.50;99.90
23237;DHT22;11787;52.018;8.570;2023-03-08T07:12:03;1.60;99.90
23237;DHT22;11787;52.018;8.570;2023-03-08T07:14:29;1.60;99.90
23237;DHT22;11787;52.018;8.570;2023-03-08T07:16:54;1.70;99.90
23237;DHT22;11787;52.018;8.570;2023-03-08T07:19:19;1.70;99.90
23237;DHT22;11787;52.018;8.570;2023-03-08T07:21:45;1.80;99.90
23237;DHT22;11787;52.018;8.570;2023-03-08T07:24:10;1.80;99.90
23237;DHT22;11787;52.018;8.570;2023-03-08T07:26:36;1.80;99.90
23237;DHT22;11787;52.018;8.570;2023-03-08T07:29:01;1.80;99.90
23237;DHT22;11787;52.018;8.570;2023-03-08T07:31:27;1.80;99.90
23237;DHT22;11787;52.018;8.570;2023-03-08T07:33:56;1.80;99.90
23237;DHT22;11787;52.018;8.570;2023-03-08T07:36:21;1.80;99.90
23237;DHT22;11787;52.018;8.570;2023-03-08T07:38:47;1.90;99.90
23237;DHT22;11787;52.018;8.570;2023-03-08T07:41:13;1.90;99.90
23237;DHT22;11787;52.018;8.570;2023-03-08T07:43:39;1.90;99.90
23237;DHT22;11787;52.018;8.570;2023-03-08T07:46:04;2.00;99.90
23237;DHT22;11787;52.018;8.570;2023-03-08T07:48:30;1.90;99.90
23237;DHT22;11787;52.018;8.570;2023-03-08T07:51:06;2.00;99.90
23237;DHT22;11787;52.018;8.570;2023-03-08T07:53:34;2.00;99.90
23237;DHT22;11787;52.018;8.570;2023-03-08T07:55:59;2.00;99.90
23237;DHT22;11787;52.018;8.570;2023-03-08T07:58:25;2.10;99.90
23237;DHT22;11787;52.018;8.570;2023-03-08T08:00:51;2.10;99.90
23237;DHT22;11787;52.018;8.570;2023-03-08T08:03:17;2.10;99.90
23237;DHT22;11787;52.018;8.570;2023-03-08T08:05:43;2.10;99.90
23237;DHT22;11787;52.018;8.570;2023-03-08T08:08:08;2.10;99.90
23237;DHT22;11787;52.018;8.570;2023-03-08T08:10:34;2.10;99.90
23237;DHT22;11787;52.018;8.570;2023-03-08T08:13:00;2.10;99.90
23237;DHT22;11787;52.018;8.570;2023-03-08T08:15:25;2.20;99.90
23237;DHT22;11787;52.018;8.570;2023-03-08T08:17:51;2.20;99.90
23237;DHT22;11787;52.018;8.570;2023-03-08T08:20:17;2.20;99.90
23237;DHT22;11787;52.018;8.570;2023-03-08T08:22:42;2.20;99.90
23237;DHT22;11787;52.018;8.570;2023-03-08T08:25:08;2.30;99.90
23237;DHT22;11787;52.018;8.570;2023-03-08T08:27:34;2.40;99.90
23237;DHT22;11787;52.018;8.570;2023-03-08T08:30:00;2.30;99.90
23237;DHT22;11787;52.018;8.570;2023-03-08T08:32:26;2.40;99.90
23237;DHT22;11787;52.018;8.570;2023-03-08T08:34:51;2.50;99.90
23237;DHT22;11787;52.018;8.570;2023-03-08T08:37:17;2.60;99.90
23237;DHT22;11787;52.018;8.570;2023-03-08T08:39:42;2.60;99.90
23237;DHT22;11787;52.018;8.570;2023-03-08T08:42:08;2.50;99.90
23237;DHT22;11787;52.018;8.570;2023-03-08T08:44:33;2.60;99.90
23237;DHT22;11787;52.018;8.570;2023-03-08T08:46:59;2.70;99.90
23237;DHT22;11787;52.018;8.570;2023-03-08T08:49:24;2.70;99.90
23237;DHT22;11787;52.018;8.570;2023-03-08T08:51:50;2.70;99.90
23237;DHT22;11787;52.018;8.570;2023-03-08T08:54:17;2.70;99.90
23237;DHT22;11787;52.018;8.570;2023-03-08T08:56:43;2.70;99.90
23237;DHT22;11787;52.018;8.570;2023-03-08T08:59:11;2.70;99.90
23237;DHT22;11787;52.018;8.570;2023-03-08T09:01:37;2.70;99.90
23237;DHT22;11787;52.018;8.570;2023-03-08T09:04:08;2.70;99.90
23237;DHT22;11787;52.018;8.570;2023-03-08T09:06:34;2.80;99.90
23237;DHT22;11787;52.018;8.570;2023-03-08T09:08:59;2.90;99.90
23237;DHT22;11787;52.018;8.570;2023-03-08T09:11:25;3.00;99.90
23237;DHT22;11787;52.018;8.570;2023-03-08T09:13:51;3.00;99.90
23237;DHT22;11787;52.018;8.570;2023-03-08T09:16:21;3.00;99.90
23237;DHT22;11787;52.018;8.570;2023-03-08T09:18:46;3.00;99.90
23237;DHT22;11787;52.018;8.570;2023-03-08T09:21:12;3.00;99.90
23237;DHT22;11787;52.018;8.570;2023-03-08T09:23:38;3.10;99.90
23237;DHT22;11787;52.018;8.570;2023-03-08T09:26:04;3.10;99.90
23237;DHT22;11787;52.018;8.570;2023-03-08T09:28:30;3.10;99.90
23237;DHT22;11787;52.018;8.570;2023-03-08T09:30:56;3.10;99.90
23237;DHT22;11787;52.018;8.570;2023-03-08T09:33:22;3.10;99.90
23237;DHT22;11787;52.018;8.570;2023-03-08T09:35:57;3.10;99.90
23237;DHT22;11787;52.018;8.570;2023-03-08T09:38:23;3.20;99.90
23237;DHT22;11787;52.018;8.570;2023-03-08T09:40:57;3.20;99.90
23237;DHT22;11787;52.018;8.570;2023-03-08T09:43:27;3.20;99.90
23237;DHT22;11787;52.018;8.570;2023-03-08T09:45:55;3.10;99.90
23237;DHT22;11787;52.018;8.570;2023-03-08T09:48:22;3.10;99.90
23237;DHT22;11787;52.018;8.570;2023-03-08T09:50:54;3.10;99.90
23237;DHT22;11787;52.018;8.570;2023-03-08T09:53:40;2.90;99.90
23237;DHT22;11787;52.018;8.570;2023-03-08T09:56:12;2.90;99.90
23237;DHT22;11787;52.018;8.570;2023-03-08T09:58:43;2.90;99.90
23237;DHT22;11787;52.018;8.570;2023-03-08T10:01:23;2.90;99.90
23237;DHT22;11787;52.018;8.570;2023-03-08T10:04:35;2.90;99.90
23237;DHT22;11787;52.018;8.570;2023-03-08T10:06:48;2.90;99.90
23237;DHT22;11787;52.018;8.570;2023-03-08T10:09:26;2.80;99.90
23237;DHT22;11787;52.018;8.570;2023-03-08T10:11:57;2.80;99.90
23237;DHT22;11787;52.018;8.570;2023-03-08T10:14:26;2.90;99.90
23237;DHT22;11787;52.018;8.570;2023-03-08T10:16:57;2.90;99.90
23237;DHT22;11787;52.018;8.570;2023-03-08T10:19:28;3.00;99.90
23237;DHT22;11787;52.018;8.570;2023-03-08T10:21:55;3.10;99.90
23237;DHT22;11787;52.018;8.570;2023-03-08T10:26:51;2.80;99.90
23237;DHT22;11787;52.018;8.570;2023-03-08T10:29:17;2.80;99.90
23237;DHT22;11787;52.018;8.570;2023-03-08T10:31:42;2.70;99.90
23237;DHT22;11787;52.018;8.570;2023-03-08T10:34:10;2.70;99.90
23237;DHT22;11787;52.018;8.570;2023-03-08T10:36:45;2.80;99.90
23237;DHT22;11787;52.018;8.570;2023-03-08T10:39:11;2.70;99.90
23237;DHT22;11787;52.018;8.570;2023-03-08T10:41:41;2.80;99.90
23237;DHT22;11787;52.018;8.570;2023-03-08T10:44:14;2.70;99.90
23237;DHT22;11787;52.018;8.570;2023-03-08T10:46:47;2.60;99.90
23237;DHT22;11787;52.018;8.570;2023-03-08T10:49:14;2.70;99.90
23237;DHT22;11787;52.018;8.570;2023-03-08T10:51:40;2.70;99.90
23237;DHT22;11787;52.018;8.570;2023-03-08T10:54:15;2.70;99.90
23237;DHT22;11787;52.018;8.570;2023-03-08T10:56:44;2.80;99.90
23237;DHT22;11787;52.018;8.570;2023-03-08T10:59:22;2.80;99.90
23237;DHT22;11787;52.018;8.570;2023-03-08T11:01:56;2.80;99.90
23237;DHT22;11787;52.018;8.570;2023-03-08T11:04:23;2.90;99.90
23237;DHT22;11787;52.018;8.570;2023-03-08T11:06:49;3.00;99.90
23237;DHT22;11787;52.018;8.570;2023-03-08T11:11:43;3.10;99.90
23237;DHT22;11787;52.018;8.570;2023-03-08T11:14:09;3.10;99.90
23237;DHT22;11787;52.018;8.570;2023-03-08T11:16:50;3.10;99.90
23237;DHT22;11787;52.018;8.570;2023-03-08T11:21:58;3.00;99.90
23237;DHT22;11787;52.018;8.570;2023-03-08T11:26:56;3.00;99.90
23237;DHT22;11787;52.018;8.570;2023-03-08T11:39:51;3.20;99.90
23237;DHT22;11787;52.018;8.570;2023-03-08T11:52:40;3.20;99.90
23237;DHT22;11787;52.018;8.570;2023-03-08T11:58:24;3.30;99.90
23237;DHT22;11787;52.018;8.570;2023-03-08T12:00:47;3.40;99.90
23237;DHT22;11787;52.018;8.570;2023-03-08T12:03:16;3.40;99.90
23237;DHT22;11787;52.018;8.570;2023-03-08T12:05:52;3.30;99.90
23237;DHT22;11787;52.018;8.570;2023-03-08T12:08:21;3.10;99.90
23237;DHT22;11787;52.018;8.570;2023-03-08T12:13:27;3.00;99.90
23237;DHT22;11787;52.018;8.570;2023-03-08T12:16:38;3.00;99.90
23237;DHT22;11787;52.018;8.570;2023-03-08T12:21:42;3.20;99.90
23237;DHT22;11787;52.018;8.570;2023-03-08T12:27:27;3.20;99.90
23237;DHT22;11787;52.018;8.570;2023-03-08T12:32:49;3.10;99.90
23237;DHT22;11787;52.018;8.570;2023-03-08T12:52:31;2.80;99.90
23237;DHT22;11787;52.018;8.570;2023-03-08T12:55:05;2.80;99.90
23237;DHT22;11787;52.018;8.570;2023-03-08T12:57:37;2.80;99.90
23237;DHT22;11787;52.018;8.570;2023-03-08T13:00:24;2.80;99.90
23237;DHT22;11787;52.018;8.570;2023-03-08T13:03:04;2.90;99.90
23237;DHT22;11787;52.018;8.570;2023-03-08T13:05:31;2.90;99.90
23237;DHT22;11787;52.018;8.570;2023-03-08T13:08:02;2.90;99.90
23237;DHT22;11787;52.018;8.570;2023-03-08T13:10:36;2.90;99.90
23237;DHT22;11787;52.018;8.570;2023-03-08T13:15:35;2.90;99.90
23237;DHT22;11787;52.018;8.570;2023-03-08T13:28:22;2.90;99.90
23237;DHT22;11787;52.018;8.570;2023-03-08T13:30:53;2.90;99.90
23237;DHT22;11787;52.018;8.570;2023-03-08T13:33:26;2.90;99.90
23237;DHT22;11787;52.018;8.570;2023-03-08T13:36:04;2.90;99.90
23237;DHT22;11787;52.018;8.570;2023-03-08T13:38:36;3.00;99.90
23237;DHT22;11787;52.018;8.570;2023-03-08T13:41:02;2.90;99.90
23237;DHT22;11787;52.018;8.570;2023-03-08T13:43:30;3.00;99.90
23237;DHT22;11787;52.018;8.570;2023-03-08T13:45:59;3.10;99.90
23237;DHT22;11787;52.018;8.570;2023-03-08T13:48:28;3.00;99.90
23237;DHT22;11787;52.018;8.570;2023-03-08T13:50:56;2.90;99.90
23237;DHT22;11787;52.018;8.570;2023-03-08T13:53:27;2.90;99.90
23237;DHT22;11787;52.018;8.570;2023-03-08T13:55:57;2.80;99.90
23237;DHT22;11787;52.018;8.570;2023-03-08T13:58:29;2.80;99.90
23237;DHT22;11787;52.018;8.570;2023-03-08T14:01:08;2.90;99.90
23237;DHT22;11787;52.018;8.570;2023-03-08T14:03:34;3.00;99.90
23237;DHT22;11787;52.018;8.570;2023-03-08T14:06:00;2.80;99.90
23237;DHT22;11787;52.018;8.570;2023-03-08T14:08:26;2.90;99.90
23237;DHT22;11787;52.018;8.570;2023-03-08T14:11:04;2.90;99.90
23237;DHT22;11787;52.018;8.570;2023-03-08T14:13:35;2.80;99.90
23237;DHT22;11787;52.018;8.570;2023-03-08T14:16:04;2.80;99.90
23237;DHT22;11787;52.018;8.570;2023-03-08T14:18:38;2.80;99.90
23237;DHT22;11787;52.018;8.570;2023-03-08T14:21:16;2.80;99.90
23237;DHT22;11787;52.018;8.570;2023-03-08T14:23:51;2.80;99.90
23237;DHT22;11787;52.018;8.570;2023-03-08T14:26:33;2.80;99.90
23237;DHT22;11787;52.018;8.570;2023-03-08T14:29:18;2.80;99.90
23237;DHT22;11787;52.018;8.570;2023-03-08T14:31:59;2.90;99.90
23237;DHT22;11787;52.018;8.570;2023-03-08T14:34:39;2.80;99.90
23237;DHT22;11787;52.018;8.570;2023-03-08T14:37:19;2.80;99.90
23237;DHT22;11787;52.018;8.570;2023-03-08T14:39:48;2.90;99.90
23237;DHT22;11787;52.018;8.570;2023-03-08T14:42:44;2.90;99.90
23237;DHT22;11787;52.018;8.570;2023-03-08T14:45:21;3.00;99.90
23237;DHT22;11787;52.018;8.570;2023-03-08T14:47:50;3.00;99.90
23237;DHT22;11787;52.018;8.570;2023-03-08T14:50:31;2.90;99.90
23237;DHT22;11787;52.018;8.570;2023-03-08T14:52:59;2.90;99.90
23237;DHT22;11787;52.018;8.570;2023-03-08T14:55:27;3.00;99.90
23237;DHT22;11787;52.018;8.570;2023-03-08T14:57:56;2.90;99.90
23237;DHT22;11787;52.018;8.570;2023-03-08T15:00:23;2.90;99.90
23237;DHT22;11787;52.018;8.570;2023-03-08T15:02:49;2.90;99.90
23237;DHT22;11787;52.018;8.570;2023-03-08T15:05:18;2.90;99.90
23237;DHT22;11787;52.018;8.570;2023-03-08T15:07:45;2.80;99.90
23237;DHT22;11787;52.018;8.570;2023-03-08T15:10:35;2.70;99.90
23237;DHT22;11787;52.018;8.570;2023-03-08T15:13:09;2.70;99.90
23237;DHT22;11787;52.018;8.570;2023-03-08T15:15:35;2.70;99.90
23237;DHT22;11787;52.018;8.570;2023-03-08T15:18:01;2.70;99.90
23237;DHT22;11787;52.018;8.570;2023-03-08T15:20:27;2.80;99.90
23237;DHT22;11787;52.018;8.570;2023-03-08T15:22:59;2.70;99.90
23237;DHT22;11787;52.018;8.570;2023-03-08T15:25:44;2.70;99.90
23237;DHT22;11787;52.018;8.570;2023-03-08T15:28:12;2.70;99.90
23237;DHT22;11787;52.018;8.570;2023-03-08T15:30:38;2.70;99.90
23237;DHT22;11787;52.018;8.570;2023-03-08T15:33:04;2.60;99.90
23237;DHT22;11787;52.018;8.570;2023-03-08T15:35:29;2.70;99.90
23237;DHT22;11787;52.018;8.570;2023-03-08T15:37:55;2.70;99.90
23237;DHT22;11787;52.018;8.570;2023-03-08T15:40:24;2.70;99.90
23237;DHT22;11787;52.018;8.570;2023-03-08T15:42:50;2.70;99.90
23237;DHT22;11787;52.018;8.570;2023-03-08T15:45:15;2.70;99.90
23237;DHT22;11787;52.018;8.570;2023-03-08T15:47:41;2.80;99.90
23237;DHT22;11787;52.018;8.570;2023-03-08T15:50:26;2.80;99.90
23237;DHT22;11787;52.018;8.570;2023-03-08T15:52:52;2.80;99.90
23237;DHT22;11787;52.018;8.570;2023-03-08T15:55:19;2.80;99.90
23237;DHT22;11787;52.018;8.570;2023-03-08T15:57:45;2.70;99.90
23237;DHT22;11787;52.018;8.570;2023-03-08T16:00:12;2.70;99.90
23237;DHT22;11787;52.018;8.570;2023-03-08T16:02:39;2.70;99.90
23237;DHT22;11787;52.018;8.570;2023-03-08T16:05:06;2.70;99.90
23237;DHT22;11787;52.018;8.570;2023-03-08T16:07:33;2.60;99.90
23237;DHT22;11787;52.018;8.570;2023-03-08T16:09:59;2.60;99.90
23237;DHT22;11787;52.018;8.570;2023-03-08T16:12:25;2.60;99.90
23237;DHT22;11787;52.018;8.570;2023-03-08T16:14:51;2.60;99.90
23237;DHT22;11787;52.018;8.570;2023-03-08T16:17:19;2.50;99.90
23237;DHT22;11787;52.018;8.570;2023-03-08T16:19:45;2.50;99.90
23237;DHT22;11787;52.018;8.570;2023-03-08T16:22:11;2.50;99.90
23237;DHT22;11787;52.018;8.570;2023-03-08T16:24:37;2.40;99.90
23237;DHT22;11787;52.018;8.570;2023-03-08T16:27:03;2.40;99.90
23237;DHT22;11787;52.018;8.570;2023-03-08T16:29:30;2.40;99.90
23237;DHT22;11787;52.018;8.570;2023-03-08T16:31:56;2.40;99.90
23237;DHT22;11787;52.018;8.570;2023-03-08T16:34:23;2.30;99.90
23237;DHT22;11787;52.018;8.570;2023-03-08T16:36:50;2.40;99.90
23237;DHT22;11787;52.018;8.570;2023-03-08T16:39:16;2.40;99.90
23237;DHT22;11787;52.018;8.570;2023-03-08T16:41:41;2.40;99.90
23237;DHT22;11787;52.018;8.570;2023-03-08T16:46:44;2.40;99.90
23237;DHT22;11787;52.018;8.570;2023-03-08T16:49:09;2.30;99.90
23237;DHT22;11787;52.018;8.570;2023-03-08T16:51:35;2.40;99.90
23237;DHT22;11787;52.018;8.570;2023-03-08T16:54:02;2.30;99.90
23237;DHT22;11787;52.018;8.570;2023-03-08T16:56:28;2.30;99.90
23237;DHT22;11787;52.018;8.570;2023-03-08T16:58:56;2.30;99.90
23237;DHT22;11787;52.018;8.570;2023-03-08T17:01:23;2.20;99.90
23237;DHT22;11787;52.018;8.570;2023-03-08T17:03:49;2.20;99.90
23237;DHT22;11787;52.018;8.570;2023-03-08T17:06:18;2.20;99.90
23237;DHT22;11787;52.018;8.570;2023-03-08T17:08:44;2.20;99.90
23237;DHT22;11787;52.018;8.570;2023-03-08T17:11:22;2.20;99.90
23237;DHT22;11787;52.018;8.570;2023-03-08T17:13:49;2.10;99.90